createdAt,value
2024-02-07T00:00:16.367Z,12.98
2024-02-07T00:02:44.720Z,11.88
2024-02-07T00:05:13.100Z,9.13
2024-02-07T00:07:45.589Z,12.50
2024-02-07T00:10:14.380Z,8.93
2024-02-07T00:12:42.773Z,8.43
2024-02-07T00:15:11.614Z,13.10
2024-02-07T00:17:39.838Z,14.75
2024-02-07T00:20:10.081Z,12.70
2024-02-07T00:22:38.394Z,9.05
2024-02-07T00:25:09.156Z,6.50
2024-02-07T00:27:37.438Z,9.38
2024-02-07T00:30:07.801Z,9.40
2024-02-07T00:32:36.152Z,9.75
2024-02-07T00:35:05.047Z,15.00
2024-02-07T00:37:33.588Z,12.05
2024-02-07T00:40:01.963Z,13.02
2024-02-07T00:42:31.466Z,11.20
2024-02-07T00:44:59.578Z,10.05
2024-02-07T00:47:27.743Z,8.00
2024-02-07T00:49:55.971Z,9.20
2024-02-07T00:52:25.332Z,11.00
2024-02-07T00:54:53.724Z,7.88
2024-02-07T00:57:21.952Z,8.88
2024-02-07T00:59:51.672Z,11.18
2024-02-07T01:02:19.885Z,12.45
2024-02-07T01:04:48.640Z,13.63
2024-02-07T01:07:16.927Z,13.50
2024-02-07T01:09:45.293Z,6.50
2024-02-07T01:12:13.695Z,8.70
2024-02-07T01:14:42.442Z,8.90
2024-02-07T01:17:12.138Z,15.82
2024-02-07T01:19:40.416Z,9.70
2024-02-07T01:22:08.623Z,10.85
2024-02-07T01:24:36.848Z,13.00
2024-02-07T01:27:07.233Z,10.15
2024-02-07T01:29:36.463Z,10.48
2024-02-07T01:32:06.102Z,10.77
2024-02-07T01:34:35.921Z,19.85
2024-02-07T01:37:06.530Z,6.78
2024-02-07T01:39:36.669Z,9.30
2024-02-07T01:42:04.191Z,7.30
2024-02-07T01:44:33.085Z,11.60
2024-02-07T01:47:16.102Z,9.80
2024-02-07T01:49:50.655Z,14.70
2024-02-07T01:52:23.485Z,10.43
2024-02-07T01:54:54.408Z,11.20
2024-02-07T01:57:24.339Z,13.25
2024-02-07T01:59:52.797Z,10.65
2024-02-07T02:02:24.422Z,11.68
2024-02-07T02:04:54.402Z,12.20
2024-02-07T02:07:23.530Z,13.88
2024-02-07T02:09:51.912Z,15.75
2024-02-07T02:12:20.214Z,10.88
2024-02-07T02:14:49.271Z,8.50
2024-02-07T02:17:17.683Z,8.77
2024-02-07T02:19:47.225Z,7.97
2024-02-07T02:23:00.549Z,16.23
2024-02-07T02:26:04.550Z,11.65
2024-02-07T02:28:54.269Z,10.88
2024-02-07T02:31:26.397Z,12.90
2024-02-07T02:33:58.662Z,12.57
2024-02-07T02:36:27.351Z,19.13
2024-02-07T02:38:56.409Z,8.45
2024-02-07T02:41:25.357Z,10.50
2024-02-07T02:43:53.882Z,8.75
2024-02-07T02:46:23.589Z,14.95
2024-02-07T02:48:52.043Z,13.27
2024-02-07T02:51:20.755Z,18.23
2024-02-07T02:53:49.283Z,15.43
2024-02-07T02:56:17.516Z,15.85
2024-02-07T02:58:46.538Z,14.05
2024-02-07T03:01:15.169Z,8.38
2024-02-07T03:03:54.916Z,11.02
2024-02-07T03:06:31.194Z,20.52
2024-02-07T03:09:09.580Z,12.82
2024-02-07T03:11:38.333Z,12.73
2024-02-07T03:14:08.059Z,9.85
2024-02-07T03:16:37.356Z,9.35
2024-02-07T03:19:07.115Z,10.02
2024-02-07T03:21:35.324Z,8.85
2024-02-07T03:24:03.940Z,12.52
2024-02-07T03:26:32.046Z,14.30
2024-02-07T03:29:00.341Z,8.98
2024-02-07T03:31:28.659Z,12.88
2024-02-07T03:33:56.969Z,9.40
2024-02-07T03:36:29.785Z,8.13
2024-02-07T03:39:00.006Z,11.57
2024-02-07T03:41:28.548Z,8.77
2024-02-07T03:43:59.887Z,8.52
2024-02-07T03:46:28.769Z,9.13
2024-02-07T03:48:57.117Z,16.13
2024-02-07T03:51:28.911Z,6.80
2024-02-07T03:53:57.247Z,14.05
2024-02-07T03:56:25.496Z,15.05
2024-02-07T03:58:53.796Z,12.02
2024-02-07T04:01:22.407Z,5.97
2024-02-07T04:03:50.627Z,7.43
2024-02-07T04:06:19.823Z,16.35
2024-02-07T04:08:49.587Z,12.88
2024-02-07T04:11:19.369Z,12.45
2024-02-07T04:13:47.788Z,13.40
2024-02-07T04:16:34.201Z,10.10
2024-02-07T04:22:06.781Z,10.95
2024-02-07T04:24:53.981Z,11.20
2024-02-07T04:27:39.873Z,11.45
2024-02-07T04:30:26.838Z,16.42
2024-02-07T04:33:12.491Z,18.52
2024-02-07T04:35:58.112Z,17.90
2024-02-07T04:38:44.111Z,17.80
2024-02-07T04:41:31.617Z,12.10
2024-02-07T04:44:17.571Z,10.23
2024-02-07T04:47:03.319Z,7.82
2024-02-07T04:49:49.405Z,21.27
2024-02-07T04:52:35.322Z,35.05
2024-02-07T04:55:21.198Z,9.90
2024-02-07T04:58:08.675Z,18.40
2024-02-07T05:00:54.784Z,16.60
2024-02-07T05:03:40.690Z,12.52
2024-02-07T05:06:26.934Z,13.18
2024-02-07T05:09:12.888Z,14.60
2024-02-07T05:11:58.612Z,21.30
2024-02-07T05:14:45.899Z,24.20
2024-02-07T05:17:14.362Z,21.67
2024-02-07T05:19:42.645Z,16.55
2024-02-07T05:22:11.321Z,11.10
2024-02-07T05:24:40.479Z,12.68
2024-02-07T05:27:11.329Z,12.50
2024-02-07T05:29:41.390Z,16.08
2024-02-07T05:32:10.360Z,11.25
2024-02-07T05:34:38.940Z,10.00
2024-02-07T05:37:07.573Z,13.38
2024-02-07T05:39:36.575Z,18.15
2024-02-07T05:42:05.014Z,13.50
2024-02-07T05:44:33.224Z,13.77
2024-02-07T05:47:03.452Z,12.65
2024-02-07T05:49:31.817Z,14.93
2024-02-07T05:52:02.288Z,12.90
2024-02-07T05:54:31.978Z,13.15
2024-02-07T05:57:00.754Z,8.32
2024-02-07T05:59:29.141Z,14.35
2024-02-07T06:01:59.893Z,15.38
2024-02-07T06:04:29.892Z,14.10
2024-02-07T06:06:58.247Z,8.82
2024-02-07T06:09:26.542Z,8.25
2024-02-07T06:11:54.898Z,13.07
2024-02-07T06:14:23.162Z,10.98
2024-02-07T06:16:52.227Z,11.13
2024-02-07T06:19:20.731Z,11.55
2024-02-07T06:21:52.609Z,12.02
2024-02-07T06:24:21.052Z,8.90
2024-02-07T06:26:49.490Z,11.48
2024-02-07T06:29:17.764Z,18.25
2024-02-07T06:31:46.108Z,10.05
2024-02-07T06:34:14.945Z,17.05
2024-02-07T06:36:43.401Z,8.68
2024-02-07T06:39:13.237Z,10.95
2024-02-07T06:41:41.633Z,13.32
2024-02-07T06:44:09.858Z,5.15
2024-02-07T06:46:44.188Z,8.95
2024-02-07T06:49:12.607Z,5.38
2024-02-07T06:51:41.715Z,14.65
2024-02-07T06:54:13.095Z,6.93
2024-02-07T06:56:41.516Z,9.27
2024-02-07T06:59:12.615Z,4.65
2024-02-07T07:01:43.030Z,6.28
2024-02-07T07:04:11.499Z,7.97
2024-02-07T07:06:39.769Z,8.48
2024-02-07T07:09:08.562Z,6.65
2024-02-07T07:11:38.313Z,11.27
2024-02-07T07:14:06.666Z,7.25
2024-02-07T07:16:35.033Z,5.72
2024-02-07T07:19:03.549Z,5.80
2024-02-07T07:21:32.273Z,7.43
2024-02-07T07:24:00.801Z,11.63
2024-02-07T07:26:29.076Z,11.38
2024-02-07T07:29:00.044Z,12.50
2024-02-07T07:31:28.427Z,6.93
2024-02-07T07:33:56.938Z,4.93
2024-02-07T07:36:28.339Z,8.40
2024-02-07T07:38:57.091Z,10.07
2024-02-07T07:41:25.562Z,6.30
2024-02-07T07:43:54.355Z,13.77
2024-02-07T07:46:24.135Z,5.82
2024-02-07T07:48:52.951Z,6.45
2024-02-07T07:51:21.881Z,10.15
2024-02-07T07:53:50.878Z,6.00
2024-02-07T07:56:19.539Z,12.70
2024-02-07T07:58:53.082Z,14.77
2024-02-07T08:01:24.845Z,6.75
2024-02-07T08:03:53.594Z,6.45
2024-02-07T08:06:22.582Z,5.20
2024-02-07T08:08:51.543Z,6.43
2024-02-07T08:11:19.803Z,6.55
2024-02-07T08:13:48.125Z,6.85
2024-02-07T08:16:16.669Z,4.60
2024-02-07T08:18:46.600Z,8.07
2024-02-07T08:21:14.915Z,8.73
2024-02-07T08:23:43.069Z,5.88
2024-02-07T08:26:12.443Z,2.55
2024-02-07T08:28:40.855Z,4.00
2024-02-07T08:31:09.066Z,4.57
2024-02-07T08:33:38.784Z,6.22
2024-02-07T08:36:10.266Z,4.43
2024-02-07T08:38:38.885Z,2.63
2024-02-07T08:41:07.197Z,4.30
2024-02-07T08:43:35.597Z,2.92
2024-02-07T08:46:03.899Z,3.47
2024-02-07T08:48:32.277Z,3.33
2024-02-07T08:51:00.661Z,4.78
2024-02-07T08:53:30.449Z,7.15
2024-02-07T08:55:58.860Z,3.13
2024-02-07T08:58:27.398Z,3.78
2024-02-07T09:00:55.909Z,5.40
2024-02-07T09:03:25.528Z,9.15
2024-02-07T09:05:53.982Z,3.30
2024-02-07T09:08:22.466Z,8.18
2024-02-07T09:10:52.261Z,6.55
2024-02-07T09:13:20.573Z,7.85
2024-02-07T09:15:48.783Z,2.88
2024-02-07T09:18:17.207Z,4.47
2024-02-07T09:20:45.541Z,2.50
2024-02-07T09:23:13.841Z,3.22
2024-02-07T09:25:42.052Z,4.05
2024-02-07T09:28:12.037Z,3.00
2024-02-07T09:30:40.694Z,2.42
2024-02-07T09:33:11.593Z,4.95
2024-02-07T09:35:40.556Z,3.08
2024-02-07T09:38:09.016Z,3.40
2024-02-07T09:40:37.622Z,3.70
2024-02-07T09:43:07.048Z,3.50
2024-02-07T09:45:40.456Z,4.78
2024-02-07T09:48:20.275Z,2.00
2024-02-07T09:50:49.816Z,3.78
2024-02-07T09:53:21.801Z,2.97
2024-02-07T09:55:52.531Z,4.10
2024-02-07T09:58:22.464Z,3.95
2024-02-07T10:00:54.074Z,2.78
2024-02-07T10:03:26.277Z,1.45
2024-02-07T10:05:59.646Z,3.22
2024-02-07T10:08:28.634Z,3.83
2024-02-07T10:10:56.993Z,3.08
2024-02-07T10:13:26.309Z,2.72
2024-02-07T10:15:56.191Z,5.22
2024-02-07T10:18:24.508Z,6.53
2024-02-07T10:20:56.676Z,3.58
2024-02-07T10:23:25.616Z,3.70
2024-02-07T10:25:55.713Z,3.83
2024-02-07T10:28:26.504Z,5.18
2024-02-07T10:31:00.457Z,8.18
2024-02-07T10:33:41.550Z,5.07
2024-02-07T10:36:13.993Z,2.97
2024-02-07T10:38:42.706Z,3.25
2024-02-07T10:41:11.639Z,4.80
2024-02-07T10:43:42.356Z,3.75
2024-02-07T10:46:16.421Z,2.95
2024-02-07T10:48:45.919Z,11.50
2024-02-07T10:51:14.710Z,3.08
2024-02-07T10:53:44.564Z,9.45
2024-02-07T10:56:19.528Z,5.10
2024-02-07T10:58:49.324Z,7.93
2024-02-07T11:01:20.553Z,4.53
2024-02-07T11:03:49.126Z,4.47
2024-02-07T11:06:17.586Z,5.07
2024-02-07T11:08:46.185Z,3.97
2024-02-07T11:11:16.211Z,5.80
2024-02-07T11:13:45.122Z,3.38
2024-02-07T11:16:13.446Z,4.22
2024-02-07T11:18:43.083Z,5.28
2024-02-07T11:21:16.205Z,6.38
2024-02-07T11:23:47.517Z,4.55
2024-02-07T11:26:17.696Z,5.25
2024-02-07T11:28:46.975Z,7.18
2024-02-07T11:31:18.092Z,8.63
2024-02-07T11:33:53.680Z,5.03
2024-02-07T11:36:23.270Z,5.15
2024-02-07T11:38:56.684Z,7.38
2024-02-07T11:41:25.769Z,3.72
2024-02-07T11:43:55.407Z,9.10
2024-02-07T11:46:24.488Z,8.00
2024-02-07T11:48:55.944Z,3.50
2024-02-07T11:51:25.042Z,4.75
2024-02-07T11:54:00.052Z,6.90
2024-02-07T11:56:29.590Z,4.65
2024-02-07T11:58:59.877Z,5.40
2024-02-07T12:01:30.441Z,10.20
2024-02-07T12:04:02.534Z,10.10
2024-02-07T12:06:31.212Z,7.82
2024-02-07T12:08:59.833Z,7.75
2024-02-07T12:11:28.119Z,5.35
2024-02-07T12:13:58.600Z,6.90
2024-02-07T12:16:26.996Z,4.10
2024-02-07T12:18:55.630Z,5.70
2024-02-07T12:21:26.678Z,5.97
2024-02-07T12:23:55.403Z,5.25
2024-02-07T12:26:26.712Z,4.43
2024-02-07T12:28:58.515Z,6.97
2024-02-07T12:31:27.122Z,6.00
2024-02-07T12:33:55.746Z,3.58
2024-02-07T12:36:25.591Z,7.30
2024-02-07T12:38:53.718Z,6.95
2024-02-07T12:41:22.376Z,4.13
2024-02-07T12:43:50.735Z,2.50
2024-02-07T12:46:19.030Z,3.50
2024-02-07T12:48:47.695Z,7.53
2024-02-07T12:51:17.179Z,3.95
2024-02-07T12:53:46.825Z,14.25
2024-02-07T12:56:19.660Z,6.47
2024-02-07T12:58:48.002Z,7.45
2024-02-07T13:01:27.699Z,4.80
2024-02-07T13:03:59.148Z,5.35
2024-02-07T13:06:28.337Z,7.35
2024-02-07T13:09:06.571Z,4.80
2024-02-07T13:11:37.331Z,7.28
2024-02-07T13:14:12.622Z,5.40
2024-02-07T13:16:41.781Z,5.22
2024-02-07T13:19:15.889Z,2.83
2024-02-07T13:21:45.143Z,3.05
2024-02-07T13:24:27.626Z,4.00
2024-02-07T13:26:58.041Z,4.60
2024-02-07T13:29:26.282Z,5.18
2024-02-07T13:31:55.840Z,3.17
2024-02-07T13:34:24.522Z,3.47
2024-02-07T13:36:52.791Z,4.22
2024-02-07T13:39:22.401Z,4.25
2024-02-07T13:41:50.637Z,3.03
2024-02-07T13:44:18.826Z,13.13
2024-02-07T13:46:47.062Z,3.25
2024-02-07T13:49:15.527Z,5.85
2024-02-07T13:51:44.418Z,4.68
2024-02-07T13:54:15.195Z,4.75
2024-02-07T13:56:45.268Z,10.63
2024-02-07T13:59:13.714Z,6.25
2024-02-07T14:01:42.702Z,7.85
2024-02-07T14:04:11.098Z,3.15
2024-02-07T14:06:39.521Z,4.97
2024-02-07T14:09:08.985Z,6.45
2024-02-07T14:11:41.687Z,6.28
2024-02-07T14:14:11.763Z,4.40
2024-02-07T14:16:40.126Z,3.67
2024-02-07T14:19:08.399Z,7.90
2024-02-07T14:21:36.733Z,6.90
2024-02-07T14:24:05.292Z,5.43
2024-02-07T14:26:33.712Z,7.63
2024-02-07T14:29:01.993Z,10.82
2024-02-07T14:31:31.893Z,2.30
2024-02-07T14:34:00.144Z,3.28
2024-02-07T14:36:28.482Z,3.20
2024-02-07T14:38:56.744Z,3.60
2024-02-07T14:41:24.998Z,2.40
2024-02-07T14:43:53.582Z,3.63
2024-02-07T14:46:21.932Z,5.13
2024-02-07T14:48:51.655Z,2.30
2024-02-07T14:51:20.047Z,3.42
2024-02-07T14:53:48.218Z,2.80
2024-02-07T14:56:16.426Z,5.50
2024-02-07T14:58:44.651Z,1.80
2024-02-07T15:01:13.548Z,2.25
2024-02-07T15:03:42.840Z,2.95
2024-02-07T15:06:11.675Z,4.65
2024-02-07T15:08:39.919Z,2.33
2024-02-07T15:11:08.921Z,3.72
2024-02-07T15:13:37.338Z,3.22
2024-02-07T15:16:05.949Z,3.05
2024-02-07T15:18:34.348Z,3.03
2024-02-07T15:21:02.856Z,5.25
2024-02-07T15:23:32.716Z,2.97
2024-02-07T15:26:01.197Z,4.03
2024-02-07T15:28:29.432Z,2.60
2024-02-07T15:30:57.949Z,1.63
2024-02-07T15:33:28.274Z,9.32
2024-02-07T15:35:58.116Z,3.65
2024-02-07T15:38:26.277Z,2.58
2024-02-07T15:40:57.548Z,4.15
2024-02-07T15:43:26.699Z,4.20
2024-02-07T15:45:54.898Z,5.47
2024-02-07T15:48:23.719Z,4.10
2024-02-07T15:50:52.751Z,6.97
2024-02-07T15:53:21.391Z,4.07
2024-02-07T15:55:49.738Z,4.30
2024-02-07T15:58:20.034Z,5.47
2024-02-07T16:00:48.601Z,2.72
2024-02-07T16:03:16.946Z,3.90
2024-02-07T16:05:45.277Z,6.63
2024-02-07T16:08:13.770Z,5.82
2024-02-07T16:10:42.544Z,5.15
2024-02-07T16:13:10.806Z,4.15
2024-02-07T16:15:40.620Z,3.78
2024-02-07T16:18:09.249Z,6.00
2024-02-07T16:20:37.979Z,3.42
2024-02-07T16:23:06.421Z,3.90
2024-02-07T16:25:35.104Z,5.45
2024-02-07T16:28:03.450Z,8.13
2024-02-07T16:30:33.239Z,3.97
2024-02-07T16:33:03.237Z,4.68
2024-02-07T16:35:31.566Z,4.50
2024-02-07T16:38:00.016Z,3.38
2024-02-07T16:40:34.770Z,3.28
2024-02-07T16:43:05.714Z,3.92
2024-02-07T16:45:37.790Z,6.85
2024-02-07T16:48:09.492Z,5.40
2024-02-07T16:50:37.989Z,4.07
2024-02-07T16:53:07.187Z,4.35
2024-02-07T16:55:35.891Z,3.90
2024-02-07T16:58:04.698Z,3.58
2024-02-07T17:00:33.532Z,3.67
2024-02-07T17:03:02.119Z,5.07
2024-02-07T17:05:33.499Z,2.63
2024-02-07T17:08:02.212Z,3.85
2024-02-07T17:10:35.987Z,4.78
2024-02-07T17:13:04.422Z,5.63
2024-02-07T17:15:33.919Z,3.95
2024-02-07T17:18:02.407Z,2.55
2024-02-07T17:20:36.026Z,3.25
2024-02-07T17:23:06.115Z,3.40
2024-02-07T17:25:34.631Z,3.15
2024-02-07T17:28:07.328Z,3.83
2024-02-07T17:30:38.521Z,4.28
2024-02-07T17:33:10.043Z,3.58
2024-02-07T17:35:43.297Z,1.40
2024-02-07T17:38:15.376Z,2.70
2024-02-07T17:40:50.278Z,2.47
2024-02-07T17:43:21.156Z,4.15
2024-02-07T17:45:53.012Z,4.30
2024-02-07T17:48:31.981Z,1.90
2024-02-07T17:51:04.456Z,1.63
2024-02-07T17:53:41.462Z,3.90
2024-02-07T17:59:06.809Z,1.85
2024-02-07T18:01:58.064Z,5.50
2024-02-07T18:04:30.344Z,2.47
2024-02-07T18:07:03.250Z,3.53
2024-02-07T18:09:32.708Z,4.32
2024-02-07T18:14:48.387Z,2.13
2024-02-07T18:17:16.959Z,5.18
2024-02-07T18:19:54.761Z,2.30
2024-02-07T18:22:24.782Z,6.20
2024-02-07T18:24:53.070Z,2.78
2024-02-07T18:27:21.387Z,4.32
2024-02-07T18:29:49.756Z,5.20
2024-02-07T18:32:17.980Z,3.30
2024-02-07T18:34:46.485Z,3.92
2024-02-07T18:37:15.023Z,5.70
2024-02-07T18:39:44.786Z,6.40
2024-02-07T18:42:13.170Z,2.53
2024-02-07T18:44:41.956Z,3.10
2024-02-07T18:47:10.573Z,5.40
2024-02-07T18:49:39.043Z,3.28
2024-02-07T18:52:07.563Z,3.60
2024-02-07T18:54:35.958Z,6.13
2024-02-07T18:57:06.142Z,2.63
2024-02-07T18:59:34.470Z,4.70
2024-02-07T19:02:02.807Z,5.95
2024-02-07T19:04:31.460Z,5.60
2024-02-07T19:06:59.798Z,11.45
2024-02-07T19:09:28.150Z,4.80
2024-02-07T19:11:58.233Z,5.35
2024-02-07T19:14:28.087Z,5.65
2024-02-07T19:16:58.698Z,7.30
2024-02-07T19:19:27.222Z,2.35
2024-02-07T19:21:55.654Z,1.48
2024-02-07T19:24:24.880Z,2.50
2024-02-07T19:26:53.164Z,3.25
2024-02-07T19:29:24.488Z,2.70
2024-02-07T19:31:54.302Z,3.90
2024-02-07T19:34:22.766Z,2.10
2024-02-07T19:36:52.552Z,2.25
2024-02-07T19:39:20.738Z,10.05
2024-02-07T19:41:49.063Z,2.05
2024-02-07T19:44:17.291Z,4.40
2024-02-07T19:46:45.552Z,3.83
2024-02-07T19:49:15.964Z,3.50
2024-02-07T19:51:44.269Z,4.03
2024-02-07T19:54:12.535Z,1.58
2024-02-07T19:56:42.649Z,13.15
2024-02-07T19:59:10.952Z,2.35
2024-02-07T20:01:40.240Z,2.97
2024-02-07T20:04:08.522Z,2.40
2024-02-07T20:06:39.276Z,2.33
2024-02-07T20:09:07.824Z,2.00
2024-02-07T20:11:36.038Z,1.88
2024-02-07T20:14:05.539Z,2.17
2024-02-07T20:16:33.913Z,2.05
2024-02-07T20:19:02.761Z,2.63
2024-02-07T20:21:32.973Z,2.72
2024-02-07T20:24:03.991Z,1.38
2024-02-07T20:26:32.380Z,2.17
2024-02-07T20:29:00.782Z,2.05
2024-02-07T20:31:29.227Z,1.80
2024-02-07T20:33:59.135Z,3.90
2024-02-07T20:36:29.593Z,2.20
2024-02-07T20:38:58.138Z,1.55
2024-02-07T20:41:27.756Z,3.13
2024-02-07T20:43:56.109Z,1.65
2024-02-07T20:46:24.371Z,1.30
2024-02-07T20:48:52.655Z,1.80
2024-02-07T20:51:20.954Z,2.65
2024-02-07T20:53:49.138Z,2.80
2024-02-07T20:56:17.383Z,2.78
2024-02-07T20:58:47.036Z,3.47
2024-02-07T21:01:15.302Z,2.53
2024-02-07T21:03:43.519Z,6.35
2024-02-07T21:06:11.790Z,4.28
2024-02-07T21:08:40.154Z,2.30
2024-02-07T21:11:08.600Z,3.03
2024-02-07T21:13:37.048Z,1.50
2024-02-07T21:16:08.206Z,3.03
2024-02-07T21:18:36.373Z,1.30
2024-02-07T21:21:05.612Z,2.50
2024-02-07T21:23:33.850Z,1.52
2024-02-07T21:26:02.124Z,1.75
2024-02-07T21:28:30.343Z,1.48
2024-02-07T21:30:58.674Z,1.80
2024-02-07T21:33:28.499Z,1.02
2024-02-07T21:35:56.908Z,2.42
2024-02-07T21:38:25.292Z,1.23
2024-02-07T21:40:53.976Z,2.55
2024-02-07T21:43:22.412Z,0.90
2024-02-07T21:45:51.299Z,1.17
2024-02-07T21:48:19.599Z,1.33
2024-02-07T21:50:49.411Z,3.25
2024-02-07T21:53:17.635Z,1.38
2024-02-07T21:55:46.166Z,1.20
2024-02-07T21:58:16.746Z,1.00
2024-02-07T22:00:45.160Z,3.75
2024-02-07T22:03:13.497Z,1.80
2024-02-07T22:05:41.985Z,0.70
2024-02-07T22:08:12.016Z,0.85
2024-02-07T22:10:40.243Z,1.67
2024-02-07T22:13:08.538Z,1.58
2024-02-07T22:15:37.604Z,2.97
2024-02-07T22:18:06.383Z,1.98
2024-02-07T22:20:34.662Z,1.60
2024-02-07T22:23:03.021Z,0.60
2024-02-07T22:25:33.366Z,1.40
2024-02-07T22:28:01.592Z,1.23
2024-02-07T22:30:30.103Z,0.57
2024-02-07T22:32:58.390Z,1.50
2024-02-07T22:35:27.679Z,1.42
2024-02-07T22:37:56.234Z,0.68
2024-02-07T22:40:24.735Z,1.38
2024-02-07T22:42:54.481Z,2.58
2024-02-07T22:45:25.728Z,1.17
2024-02-07T22:47:54.885Z,0.98
2024-02-07T22:50:24.736Z,0.85
2024-02-07T22:52:53.029Z,4.28
2024-02-07T22:55:21.528Z,1.33
2024-02-07T22:57:50.164Z,0.90
2024-02-07T23:00:21.596Z,2.38
2024-02-07T23:02:54.895Z,1.10
2024-02-07T23:05:23.640Z,0.80
2024-02-07T23:07:51.927Z,1.10
2024-02-07T23:10:21.683Z,0.40
2024-02-07T23:12:50.051Z,1.65
2024-02-07T23:15:20.142Z,2.72
2024-02-07T23:17:50.066Z,2.45
2024-02-07T23:20:18.489Z,1.15
2024-02-07T23:22:46.885Z,1.13
2024-02-07T23:25:16.448Z,2.47
2024-02-07T23:27:46.188Z,1.95
2024-02-07T23:30:15.395Z,1.70
2024-02-07T23:32:45.456Z,1.85
2024-02-07T23:35:13.760Z,0.90
2024-02-07T23:37:42.086Z,1.33
2024-02-07T23:40:11.058Z,1.85
2024-02-07T23:42:40.445Z,1.40
2024-02-07T23:45:10.076Z,1.85
2024-02-07T23:47:39.973Z,0.80
2024-02-07T23:50:10.293Z,0.65
2024-02-07T23:52:38.634Z,6.80
2024-02-07T23:55:08.714Z,0.95
2024-02-07T23:57:37.017Z,1.23
